Terminal Aerodrome Forecast
Issued by NWS Upton, NY

Home | Current Version | Previous Version | Text Only | Print | Product List | Glossary On
Versions: 1 2 3 4 5 6 7 8 9 10 11 12 13 14 15 16 17 18 19 20 21 22 23 24 25 26 27 28 29 30 31
573
FTUS41 KOKX 211523 AAB
TAFBDR
TAF AMD
KBDR 211523Z 2115/2212 08004KT P6SM SKC
     FM211900 17008KT P6SM OVC180
     FM220300 18005KT P6SM BKN120
     FM220900 VRB03KT P6SM FEW020 SCT040 OVC090=

USA.gov is the U.S. government's official web portal to all federal, state and local government web resources and services.